createdAt,value
2022-09-02T00:03:05.356Z,17.20
2022-09-02T00:08:10.819Z,17.17
2022-09-02T00:13:16.366Z,17.12
2022-09-02T00:18:19.833Z,17.04
2022-09-02T00:23:25.588Z,16.99
2022-09-02T00:28:30.571Z,16.95
2022-09-02T00:33:33.594Z,16.91
2022-09-02T00:38:39.728Z,16.85
2022-09-02T00:43:46.857Z,16.80
2022-09-02T00:48:57.195Z,16.75
2022-09-02T00:54:02.224Z,16.66
2022-09-02T00:59:05.837Z,16.63
2022-09-02T01:04:09.088Z,16.62
2022-09-02T01:09:16.810Z,16.60
2022-09-02T01:14:19.871Z,16.60
2022-09-02T01:19:26.354Z,16.57
2022-09-02T01:24:33.096Z,16.55
2022-09-02T01:29:36.154Z,16.49
2022-09-02T01:34:39.874Z,16.39
2022-09-02T01:39:45.186Z,16.45
2022-09-02T01:44:48.800Z,16.42
2022-09-02T01:49:52.576Z,16.38
2022-09-02T01:54:58.037Z,16.36
2022-09-02T02:00:01.807Z,16.33
2022-09-02T02:05:15.966Z,16.30
2022-09-02T02:10:23.107Z,16.25
2022-09-02T02:20:28.458Z,16.23
2022-09-02T02:25:34.068Z,16.09
2022-09-02T02:30:37.403Z,16.14
2022-09-02T02:35:42.539Z,16.14
2022-09-02T02:40:47.693Z,16.10
2022-09-02T02:45:50.720Z,16.08
2022-09-02T02:50:54.389Z,16.03
2022-09-02T02:55:58.966Z,16.03
2022-09-02T03:01:02.187Z,16.01
2022-09-02T03:06:06.272Z,15.98
2022-09-02T03:11:10.634Z,16.01
2022-09-02T03:16:19.837Z,16.00
2022-09-02T03:21:23.828Z,16.04
2022-09-02T03:26:28.868Z,16.06
2022-09-02T03:31:32.601Z,16.06
2022-09-02T03:36:38.805Z,16.08
2022-09-02T03:41:44.966Z,16.03
2022-09-02T03:46:48.327Z,16.01
2022-09-02T03:51:51.367Z,15.93
2022-09-02T03:56:55.766Z,15.90
2022-09-02T04:02:00.231Z,15.86
2022-09-02T04:07:04.093Z,15.84
2022-09-02T04:12:08.965Z,15.80
2022-09-02T04:17:11.998Z,15.78
2022-09-02T04:22:14.967Z,15.72
2022-09-02T04:27:19.441Z,15.70
2022-09-02T04:32:22.759Z,15.65
2022-09-02T04:37:27.468Z,15.63
2022-09-02T04:42:32.563Z,15.66
2022-09-02T04:47:35.776Z,15.72
2022-09-02T04:52:40.305Z,15.73
2022-09-02T04:57:45.174Z,15.69
2022-09-02T05:02:50.164Z,15.69
2022-09-02T05:07:56.409Z,15.68
2022-09-02T05:13:01.444Z,15.65
2022-09-02T05:18:05.835Z,15.66
2022-09-02T05:23:09.450Z,15.63
2022-09-02T05:28:14.361Z,15.62
2022-09-02T05:33:17.537Z,15.66
2022-09-02T05:38:25.239Z,15.64
2022-09-02T05:43:29.811Z,15.60
2022-09-02T05:48:51.408Z,15.62
2022-09-02T05:53:56.362Z,15.64
2022-09-02T05:59:01.947Z,15.68
2022-09-02T06:04:07.334Z,15.73
2022-09-02T06:09:13.983Z,15.84
2022-09-02T06:14:22.441Z,15.94
2022-09-02T06:19:28.990Z,16.04
2022-09-02T06:24:34.516Z,16.18
2022-09-02T06:29:45.990Z,16.23
2022-09-02T06:34:51.842Z,16.29
2022-09-02T06:39:55.946Z,16.36
2022-09-02T06:45:03.871Z,16.44
2022-09-02T06:50:08.497Z,16.49
2022-09-02T06:55:12.166Z,16.60
2022-09-02T07:00:17.799Z,16.71
2022-09-02T07:05:20.907Z,16.87
2022-09-02T07:10:23.961Z,17.10
2022-09-02T07:15:32.358Z,17.38
2022-09-02T07:20:35.824Z,17.70
2022-09-02T07:25:41.301Z,17.99
2022-09-02T07:30:47.481Z,18.18
2022-09-02T07:35:53.680Z,18.40
2022-09-02T07:40:58.104Z,18.58
2022-09-02T07:46:07.313Z,18.75
2022-09-02T07:51:11.362Z,18.95
2022-09-02T07:56:15.722Z,19.14
2022-09-02T08:01:23.543Z,19.35
2022-09-02T08:06:34.804Z,19.56
2022-09-02T08:11:39.064Z,19.73
2022-09-02T08:16:43.875Z,19.82
2022-09-02T08:21:46.931Z,20.18
2022-09-02T08:26:50.690Z,20.55
2022-09-02T08:31:55.059Z,20.68
2022-09-02T08:36:58.170Z,20.66
2022-09-02T08:42:09.807Z,20.71
2022-09-02T08:47:19.997Z,21.00
2022-09-02T08:52:29.792Z,21.23
2022-09-02T08:57:33.662Z,21.57
2022-09-02T09:02:47.527Z,21.95
2022-09-02T09:08:13.991Z,22.32
2022-09-02T09:13:49.850Z,22.66
2022-09-02T09:19:01.768Z,23.10
2022-09-02T09:24:10.717Z,23.32
2022-09-02T09:29:13.719Z,23.44
2022-09-02T09:34:18.685Z,23.78
2022-09-02T09:39:24.959Z,23.99
2022-09-02T09:44:37.464Z,23.87
2022-09-02T09:49:41.901Z,23.98
2022-09-02T09:54:44.833Z,24.04
2022-09-02T09:59:50.008Z,24.17
2022-09-02T10:04:56.433Z,24.67
2022-09-02T10:10:13.305Z,24.93
2022-09-02T10:15:20.719Z,25.00
2022-09-02T10:20:38.963Z,25.38
2022-09-02T10:26:04.127Z,25.39
2022-09-02T10:31:13.494Z,25.49
2022-09-02T10:36:28.756Z,25.54
2022-09-02T10:47:00.209Z,26.15
2022-09-02T10:52:11.166Z,26.58
2022-09-02T10:57:17.918Z,26.76
2022-09-02T11:02:26.165Z,26.79
2022-09-02T11:07:49.863Z,26.97
2022-09-02T11:13:00.880Z,27.27
2022-09-02T11:18:10.516Z,27.51
2022-09-02T11:23:21.727Z,27.95
2022-09-02T11:28:38.887Z,28.06
2022-09-02T11:33:54.033Z,28.21
2022-09-02T11:39:03.340Z,28.47
2022-09-02T11:44:41.630Z,28.62
2022-09-02T11:50:13.104Z,28.70
2022-09-02T11:55:22.814Z,28.52
2022-09-02T12:00:30.706Z,28.40
2022-09-02T12:05:47.888Z,28.27
2022-09-02T12:11:04.905Z,28.32
2022-09-02T12:16:38.014Z,28.21
2022-09-02T12:22:21.832Z,28.29
2022-09-02T12:27:29.713Z,28.48
2022-09-02T12:33:05.147Z,28.65
2022-09-02T12:38:40.082Z,28.74
2022-09-02T12:44:12.450Z,28.79
2022-09-02T12:49:29.829Z,28.85
2022-09-02T12:54:41.674Z,29.09
2022-09-02T12:59:47.812Z,29.36
2022-09-02T13:05:01.460Z,29.54
2022-09-02T13:10:24.686Z,29.55
2022-09-02T13:15:43.139Z,29.81
2022-09-02T13:21:14.222Z,29.96
2022-09-02T13:26:49.334Z,29.77
2022-09-02T13:32:14.168Z,29.64
2022-09-02T13:37:28.674Z,29.87
2022-09-02T13:42:32.879Z,29.93
2022-09-02T13:47:38.405Z,30.07
2022-09-02T13:53:34.684Z,30.16
2022-09-02T13:58:09.082Z,30.30
2022-09-02T14:03:18.383Z,30.09
2022-09-02T14:08:24.650Z,30.36
2022-09-02T14:13:28.298Z,30.21
2022-09-02T14:18:32.633Z,30.30
2022-09-02T14:23:39.547Z,30.30
2022-09-02T14:28:42.554Z,30.56
2022-09-02T14:33:47.612Z,30.89
2022-09-02T14:38:52.818Z,30.93
2022-09-02T14:43:58.049Z,30.80
2022-09-02T14:49:05.615Z,30.75
2022-09-02T14:54:09.089Z,30.97
2022-09-02T14:59:12.421Z,31.00
2022-09-02T15:04:17.118Z,31.12
2022-09-02T15:09:20.071Z,31.10
2022-09-02T15:14:23.128Z,30.99
2022-09-02T15:19:27.353Z,31.03
2022-09-02T15:24:30.308Z,30.89
2022-09-02T15:29:36.188Z,30.89
2022-09-02T15:34:41.139Z,30.80
2022-09-02T15:39:44.640Z,30.82
2022-09-02T15:44:47.896Z,30.76
2022-09-02T15:49:53.531Z,30.84
2022-09-02T15:54:56.625Z,30.80
2022-09-02T16:00:00.339Z,30.91
2022-09-02T16:05:05.096Z,30.77
2022-09-02T16:10:09.374Z,30.68
2022-09-02T16:15:12.503Z,30.42
2022-09-02T16:20:20.982Z,30.15
2022-09-02T16:25:25.331Z,30.05
2022-09-02T16:30:29.995Z,30.05
2022-09-02T16:35:34.353Z,30.10
2022-09-02T16:40:37.725Z,29.93
2022-09-02T16:45:40.682Z,29.74
2022-09-02T16:50:45.169Z,29.67
2022-09-02T16:55:48.119Z,29.42
2022-09-02T17:00:51.171Z,29.19
2022-09-02T17:05:55.596Z,29.00
2022-09-02T17:11:13.011Z,28.67
2022-09-02T17:16:16.291Z,28.45
2022-09-02T17:21:25.377Z,28.35
2022-09-02T17:26:30.853Z,28.33
2022-09-02T17:31:34.919Z,28.10
2022-09-02T17:36:42.008Z,27.95
2022-09-02T17:41:58.395Z,27.64
2022-09-02T17:47:02.739Z,27.48
2022-09-02T17:52:08.494Z,27.23
2022-09-02T17:57:31.004Z,26.94
2022-09-02T18:02:43.583Z,26.65
2022-09-02T18:08:00.984Z,26.40
2022-09-02T18:13:06.869Z,26.03
2022-09-02T18:18:12.030Z,25.80
2022-09-02T18:23:28.661Z,25.51
2022-09-02T18:28:45.311Z,25.30
2022-09-02T18:34:11.917Z,25.07
2022-09-02T18:39:35.144Z,24.81
2022-09-02T18:44:47.323Z,24.64
2022-09-02T18:49:53.596Z,24.35
2022-09-02T18:55:04.362Z,24.19
2022-09-02T19:00:09.214Z,23.88
2022-09-02T19:05:14.653Z,23.64
2022-09-02T19:10:19.073Z,23.47
2022-09-02T19:15:22.487Z,23.35
2022-09-02T19:20:25.528Z,23.25
2022-09-02T19:25:31.371Z,23.10
2022-09-02T19:30:37.360Z,22.94
2022-09-02T19:35:46.659Z,22.80
2022-09-02T19:40:50.985Z,22.63
2022-09-02T19:45:54.006Z,22.47
2022-09-02T19:50:57.041Z,22.35
2022-09-02T19:56:01.511Z,22.21
2022-09-02T20:01:05.912Z,22.07
2022-09-02T20:06:09.066Z,21.99
2022-09-02T20:11:13.894Z,21.85
2022-09-02T20:16:20.569Z,21.76
2022-09-02T20:21:26.594Z,21.58
2022-09-02T20:26:41.895Z,21.46
2022-09-02T20:32:01.421Z,21.33
2022-09-02T20:37:19.628Z,21.21
2022-09-02T20:42:42.227Z,21.08
2022-09-02T20:47:59.226Z,20.91
2022-09-02T20:53:16.510Z,20.90
2022-09-02T20:58:32.997Z,20.84
2022-09-02T21:03:51.422Z,20.76
2022-09-02T21:09:02.251Z,20.72
2022-09-02T21:14:11.317Z,20.67
2022-09-02T21:19:18.507Z,20.58
2022-09-02T21:24:25.466Z,20.51
2022-09-02T21:29:33.099Z,20.44
2022-09-02T21:34:40.113Z,20.35
2022-09-02T21:39:51.311Z,20.20
2022-09-02T21:45:11.551Z,20.13
2022-09-02T21:50:22.035Z,20.04
2022-09-02T21:55:38.858Z,19.99
2022-09-02T22:00:49.494Z,19.91
2022-09-02T22:05:55.962Z,19.80
2022-09-02T22:11:09.746Z,19.72
2022-09-02T22:16:22.066Z,19.59
2022-09-02T22:21:30.466Z,19.54
2022-09-02T22:26:40.058Z,19.46
2022-09-02T22:31:45.746Z,19.40
2022-09-02T22:37:06.166Z,19.35
2022-09-02T22:42:21.538Z,19.24
2022-09-02T22:47:44.428Z,19.21
2022-09-02T22:52:50.607Z,19.11
2022-09-02T22:58:05.366Z,19.01
2022-09-02T23:03:18.660Z,18.95
2022-09-02T23:08:22.893Z,18.91
2022-09-02T23:13:48.625Z,18.87
2022-09-02T23:19:07.305Z,18.83
2022-09-02T23:24:19.851Z,18.76
2022-09-02T23:29:26.518Z,18.80
2022-09-02T23:34:45.834Z,18.76
2022-09-02T23:39:59.505Z,18.71
2022-09-02T23:45:22.009Z,18.62
2022-09-02T23:50:35.885Z,18.58
2022-09-02T23:55:48.668Z,18.54
